createdAt,value
2022-10-14T00:01:51.236Z,41.09
2022-10-14T00:04:18.819Z,41.12
2022-10-14T00:06:46.477Z,41.09
2022-10-14T00:09:15.142Z,41.11
2022-10-14T00:11:43.888Z,40.63
2022-10-14T00:14:17.641Z,41.16
2022-10-14T00:16:47.650Z,41.02
2022-10-14T00:19:18.547Z,40.74
2022-10-14T00:21:46.953Z,41.20
2022-10-14T00:24:18.786Z,41.40
2022-10-14T00:26:52.899Z,41.44
2022-10-14T00:29:23.184Z,41.43
2022-10-14T00:31:51.931Z,41.45
2022-10-14T00:34:20.494Z,40.94
2022-10-14T00:36:48.336Z,41.05
2022-10-14T00:39:19.694Z,41.29
2022-10-14T00:41:49.942Z,41.22
2022-10-14T00:44:20.719Z,41.36
2022-10-14T00:46:51.120Z,41.32
2022-10-14T00:49:25.140Z,41.12
2022-10-14T00:51:58.481Z,41.04
2022-10-14T00:54:40.005Z,40.92
2022-10-14T00:57:12.761Z,40.95
2022-10-14T00:59:46.314Z,40.92
2022-10-14T01:02:16.555Z,40.81
2022-10-14T01:04:48.773Z,40.63
2022-10-14T01:07:22.571Z,40.87
2022-10-14T01:09:59.155Z,40.64
2022-10-14T01:12:35.899Z,40.54
2022-10-14T01:15:07.610Z,40.80
2022-10-14T01:18:15.329Z,40.86
2022-10-14T01:21:07.177Z,40.45
2022-10-14T01:23:46.561Z,40.62
2022-10-14T01:26:59.300Z,40.39
2022-10-14T01:29:41.725Z,39.96
2022-10-14T01:32:32.834Z,40.15
2022-10-14T01:35:09.806Z,40.17
2022-10-14T01:37:45.185Z,39.84
2022-10-14T01:40:24.057Z,39.93
2022-10-14T01:42:56.437Z,40.45
2022-10-14T01:45:28.875Z,40.59
2022-10-14T01:47:58.648Z,40.62
2022-10-14T01:50:31.737Z,40.23
2022-10-14T01:53:05.229Z,40.43
2022-10-14T01:55:39.435Z,40.02
2022-10-14T01:58:11.724Z,40.18
2022-10-14T02:00:44.692Z,40.41
2022-10-14T02:03:13.448Z,40.43
2022-10-14T02:05:53.822Z,40.14
2022-10-14T02:08:32.601Z,40.23
2022-10-14T02:11:16.953Z,40.72
2022-10-14T02:13:56.441Z,40.48
2022-10-14T02:16:23.975Z,40.55
2022-10-14T02:19:00.541Z,40.88
2022-10-14T02:21:58.589Z,40.33
2022-10-14T02:24:39.590Z,40.48
2022-10-14T02:27:14.457Z,40.55
2022-10-14T02:29:45.598Z,40.61
2022-10-14T02:32:16.561Z,41.10
2022-10-14T02:34:49.631Z,40.90
2022-10-14T02:37:19.105Z,41.01
2022-10-14T02:40:02.654Z,41.24
2022-10-14T02:42:33.250Z,40.96
2022-10-14T02:45:03.885Z,40.92
2022-10-14T02:47:38.219Z,40.93
2022-10-14T02:50:09.437Z,41.40
2022-10-14T02:52:37.881Z,40.91
2022-10-14T02:55:10.579Z,40.78
2022-10-14T02:57:42.186Z,40.93
2022-10-14T03:00:14.118Z,40.93
2022-10-14T03:02:43.182Z,41.22
2022-10-14T03:05:18.638Z,41.08
2022-10-14T03:07:51.910Z,41.03
2022-10-14T03:10:23.965Z,41.42
2022-10-14T03:12:51.775Z,41.05
2022-10-14T03:15:35.230Z,41.64
2022-10-14T03:18:07.801Z,41.43
2022-10-14T03:20:47.845Z,41.33
2022-10-14T03:23:27.921Z,41.20
2022-10-14T03:25:59.156Z,41.32
2022-10-14T03:28:34.395Z,41.24
2022-10-14T03:31:16.170Z,41.06
2022-10-14T03:34:06.903Z,41.00
2022-10-14T03:36:39.161Z,41.20
2022-10-14T03:39:13.907Z,41.28
2022-10-14T03:41:47.151Z,41.36
2022-10-14T03:44:19.106Z,40.84
2022-10-14T03:47:08.724Z,41.29
2022-10-14T03:49:40.988Z,41.25
2022-10-14T03:52:22.309Z,41.42
2022-10-14T03:55:03.168Z,41.42
2022-10-14T03:57:34.464Z,41.05
2022-10-14T04:00:05.090Z,41.42
2022-10-14T04:02:42.125Z,41.33
2022-10-14T04:05:35.520Z,41.39
2022-10-14T04:08:10.063Z,41.15
2022-10-14T04:10:41.102Z,41.45
2022-10-14T04:13:14.454Z,41.24
2022-10-14T04:15:45.019Z,41.39
2022-10-14T04:18:41.289Z,41.15
2022-10-14T04:21:12.558Z,41.07
2022-10-14T04:23:42.608Z,40.92
2022-10-14T04:26:18.293Z,41.19
2022-10-14T04:28:49.136Z,41.40
2022-10-14T04:31:31.157Z,41.07
2022-10-14T04:34:02.363Z,41.16
2022-10-14T04:36:42.021Z,41.25
2022-10-14T04:39:28.438Z,41.24
2022-10-14T04:41:59.488Z,41.08
2022-10-14T04:44:29.616Z,41.19
2022-10-14T04:46:59.800Z,40.88
2022-10-14T04:49:28.502Z,41.42
2022-10-14T04:52:10.421Z,40.97
2022-10-14T04:54:47.306Z,41.37
2022-10-14T04:57:20.462Z,41.57
2022-10-14T04:59:52.302Z,41.29
2022-10-14T05:02:41.809Z,41.21
2022-10-14T05:05:14.864Z,41.48
2022-10-14T05:07:44.295Z,41.09
2022-10-14T05:10:23.163Z,41.23
2022-10-14T05:12:50.991Z,41.09
2022-10-14T05:15:20.023Z,41.35
2022-10-14T05:18:02.461Z,41.30
2022-10-14T05:20:47.262Z,41.49
2022-10-14T05:23:18.333Z,41.07
2022-10-14T05:25:46.572Z,41.16
2022-10-14T05:28:18.259Z,41.02
2022-10-14T05:30:52.308Z,41.46
2022-10-14T05:33:26.522Z,41.41
2022-10-14T05:35:59.387Z,41.32
2022-10-14T05:38:38.831Z,41.45
2022-10-14T05:41:16.429Z,41.38
2022-10-14T05:43:46.774Z,41.46
2022-10-14T05:46:20.580Z,41.48
2022-10-14T05:49:01.913Z,42.10
2022-10-14T05:51:32.681Z,41.58
2022-10-14T05:54:12.501Z,41.52
2022-10-14T05:56:44.326Z,41.39
2022-10-14T05:59:15.144Z,41.01
2022-10-14T06:01:43.763Z,41.16
2022-10-14T06:04:21.014Z,41.04
2022-10-14T06:06:49.856Z,40.85
2022-10-14T06:09:20.814Z,40.66
2022-10-14T06:11:48.343Z,41.07
2022-10-14T06:14:18.487Z,40.69
2022-10-14T06:16:55.927Z,40.81
2022-10-14T06:19:28.102Z,41.19
2022-10-14T06:21:55.942Z,40.75
2022-10-14T06:24:28.468Z,40.58
2022-10-14T06:26:55.754Z,40.00
2022-10-14T06:29:31.720Z,39.47
2022-10-14T06:32:10.564Z,38.28
2022-10-14T06:34:39.181Z,37.53
2022-10-14T06:37:09.612Z,37.64
2022-10-14T06:39:37.244Z,37.31
2022-10-14T06:42:13.057Z,37.69
2022-10-14T06:44:46.158Z,37.47
2022-10-14T06:47:13.576Z,37.77
2022-10-14T06:49:41.232Z,37.91
2022-10-14T06:52:09.012Z,37.49
2022-10-14T06:54:47.334Z,37.30
2022-10-14T06:57:19.310Z,37.75
2022-10-14T06:59:52.992Z,37.91
2022-10-14T07:02:26.449Z,37.60
2022-10-14T07:04:54.623Z,38.07
2022-10-14T07:07:27.619Z,38.14
2022-10-14T07:09:58.915Z,38.76
2022-10-14T07:12:34.146Z,38.52
2022-10-14T07:15:05.099Z,38.40
2022-10-14T07:17:40.682Z,38.13
2022-10-14T07:20:17.337Z,38.92
2022-10-14T07:22:47.471Z,38.68
2022-10-14T07:25:18.695Z,38.82
2022-10-14T07:27:46.713Z,38.37
2022-10-14T07:30:17.377Z,38.08
2022-10-14T07:32:47.697Z,38.68
2022-10-14T07:35:21.194Z,38.71
2022-10-14T07:37:52.180Z,38.72
2022-10-14T07:40:23.354Z,38.75
2022-10-14T07:42:57.533Z,38.81
2022-10-14T07:45:35.445Z,39.15
2022-10-14T07:48:08.678Z,39.16
2022-10-14T07:50:39.359Z,39.27
2022-10-14T07:53:08.092Z,37.90
2022-10-14T07:55:44.550Z,37.86
2022-10-14T07:58:12.256Z,37.52
2022-10-14T08:00:47.245Z,37.80
2022-10-14T08:03:16.312Z,38.62
2022-10-14T08:05:55.413Z,38.98
2022-10-14T08:08:28.795Z,39.39
2022-10-14T08:11:05.566Z,39.60
2022-10-14T08:13:33.861Z,39.34
2022-10-14T08:16:04.692Z,39.40
2022-10-14T08:18:32.429Z,38.96
2022-10-14T08:21:02.754Z,38.40
2022-10-14T08:23:33.245Z,38.76
2022-10-14T08:26:00.977Z,39.12
2022-10-14T08:28:34.310Z,39.41
2022-10-14T08:31:05.608Z,39.97
2022-10-14T08:33:38.667Z,40.07
2022-10-14T08:36:09.446Z,40.40
2022-10-14T08:38:42.101Z,40.25
2022-10-14T08:41:15.411Z,40.12
2022-10-14T08:43:51.742Z,39.33
2022-10-14T08:46:41.828Z,40.15
2022-10-14T08:50:02.513Z,40.26
2022-10-14T08:52:37.810Z,39.96
2022-10-14T08:55:23.117Z,40.32
2022-10-14T08:58:29.942Z,40.51
2022-10-14T09:01:11.199Z,39.98
2022-10-14T09:03:55.399Z,39.85
2022-10-14T09:06:30.539Z,40.09
2022-10-14T09:09:37.385Z,40.27
2022-10-14T09:12:15.243Z,39.99
2022-10-14T09:14:48.431Z,40.93
2022-10-14T09:17:20.657Z,39.97
2022-10-14T09:20:14.814Z,40.25
2022-10-14T09:22:46.553Z,40.43
2022-10-14T09:25:18.424Z,40.47
2022-10-14T09:27:51.312Z,40.77
2022-10-14T09:30:24.995Z,40.00
2022-10-14T09:32:56.693Z,40.33
2022-10-14T09:35:34.416Z,39.65
2022-10-14T09:38:08.272Z,39.51
2022-10-14T09:40:43.738Z,39.63
2022-10-14T09:43:11.849Z,39.45
2022-10-14T09:46:00.461Z,39.66
2022-10-14T09:48:43.788Z,39.29
2022-10-14T09:51:28.595Z,39.40
2022-10-14T09:54:04.853Z,39.37
2022-10-14T09:56:41.742Z,39.65
2022-10-14T09:59:19.700Z,38.88
2022-10-14T10:02:02.809Z,39.10
2022-10-14T10:04:40.577Z,39.85
2022-10-14T10:07:29.693Z,39.45
2022-10-14T10:10:06.203Z,39.92
2022-10-14T10:12:37.908Z,39.66
2022-10-14T10:15:22.179Z,39.54
2022-10-14T10:17:53.841Z,39.38
2022-10-14T10:20:33.332Z,39.89
2022-10-14T10:23:31.261Z,39.69
2022-10-14T10:26:21.053Z,39.67
2022-10-14T10:28:50.269Z,39.64
2022-10-14T10:34:32.662Z,40.38
2022-10-14T10:37:28.180Z,40.13
2022-10-14T10:40:33.204Z,41.10
2022-10-14T10:43:22.050Z,41.47
2022-10-14T10:46:12.376Z,41.03
2022-10-14T10:49:15.277Z,41.30
2022-10-14T10:52:08.790Z,41.36
2022-10-14T10:54:59.818Z,41.28
2022-10-14T10:57:36.246Z,41.23
2022-10-14T11:00:21.357Z,41.46
2022-10-14T11:03:11.422Z,41.58
2022-10-14T11:06:08.031Z,41.67
2022-10-14T11:09:23.949Z,41.52
2022-10-14T11:12:16.211Z,41.93
2022-10-14T11:15:08.588Z,41.51
2022-10-14T11:18:00.298Z,41.88
2022-10-14T11:20:44.882Z,41.65
2022-10-14T11:23:49.662Z,41.82
2022-10-14T11:26:50.423Z,41.68
2022-10-14T11:29:38.879Z,41.66
2022-10-14T11:33:03.625Z,41.86
2022-10-14T11:36:01.384Z,41.87
2022-10-14T11:38:48.517Z,42.17
2022-10-14T11:41:27.963Z,42.35
2022-10-14T11:44:33.395Z,42.13
2022-10-14T11:47:29.147Z,42.40
2022-10-14T11:50:26.601Z,42.10
2022-10-14T11:53:17.451Z,42.54
2022-10-14T11:55:56.364Z,42.12
2022-10-14T11:58:33.525Z,42.16
2022-10-14T12:01:09.577Z,41.98
2022-10-14T12:04:01.122Z,42.16
2022-10-14T12:06:44.109Z,42.37
2022-10-14T12:09:16.822Z,42.56
2022-10-14T12:11:59.948Z,42.23
2022-10-14T12:14:43.482Z,42.60
2022-10-14T12:17:43.970Z,42.60
2022-10-14T12:20:38.826Z,42.27
2022-10-14T12:23:13.303Z,42.41
2022-10-14T12:26:03.769Z,42.53
2022-10-14T12:28:43.882Z,42.29
2022-10-14T12:31:40.885Z,42.67
2022-10-14T12:34:11.603Z,42.48
2022-10-14T12:36:47.155Z,42.83
2022-10-14T12:39:17.775Z,42.66
2022-10-14T12:42:14.468Z,42.68
2022-10-14T12:44:56.231Z,42.26
2022-10-14T12:47:32.274Z,42.65
2022-10-14T12:50:17.907Z,42.94
2022-10-14T12:52:58.130Z,43.11
2022-10-14T12:55:52.287Z,42.69
2022-10-14T12:58:47.567Z,42.55
2022-10-14T13:01:20.275Z,42.70
2022-10-14T13:04:07.253Z,43.10
2022-10-14T13:06:39.432Z,42.64
2022-10-14T13:09:22.415Z,43.06
2022-10-14T13:11:55.660Z,42.98
2022-10-14T13:14:52.891Z,42.71
2022-10-14T13:17:42.592Z,42.71
2022-10-14T13:20:35.681Z,43.10
2022-10-14T13:23:31.164Z,42.79
2022-10-14T13:26:58.389Z,42.96
2022-10-14T13:29:32.031Z,43.34
2022-10-14T13:32:31.304Z,42.97
2022-10-14T13:35:00.038Z,42.72
2022-10-14T13:37:41.940Z,43.24
2022-10-14T13:40:31.751Z,43.35
2022-10-14T13:43:09.675Z,43.20
2022-10-14T13:45:58.280Z,43.50
2022-10-14T13:48:37.245Z,43.45
2022-10-14T13:51:36.446Z,43.28
2022-10-14T13:54:24.831Z,43.21
2022-10-14T13:57:59.966Z,43.23
2022-10-14T14:00:41.243Z,42.91
2022-10-14T14:03:29.257Z,42.89
2022-10-14T14:06:01.538Z,43.38
2022-10-14T14:08:40.799Z,43.31
2022-10-14T14:11:36.742Z,42.76
2022-10-14T14:14:27.704Z,43.28
2022-10-14T14:17:00.533Z,43.12
2022-10-14T14:19:31.168Z,43.07
2022-10-14T14:22:35.232Z,42.73
2022-10-14T14:25:38.347Z,42.39
2022-10-14T14:28:18.762Z,43.00
2022-10-14T14:30:55.475Z,42.97
2022-10-14T14:33:32.789Z,42.76
2022-10-14T14:36:14.691Z,42.82
2022-10-14T14:38:57.836Z,43.13
2022-10-14T14:41:31.391Z,43.42
2022-10-14T14:44:25.348Z,43.00
2022-10-14T14:47:03.918Z,43.10
2022-10-14T14:49:41.067Z,42.82
2022-10-14T14:52:14.840Z,42.84
2022-10-14T14:54:52.838Z,43.02
2022-10-14T14:57:22.715Z,42.98
2022-10-14T15:00:09.874Z,43.01
2022-10-14T15:02:41.182Z,42.75
2022-10-14T15:05:15.103Z,43.20
2022-10-14T15:07:49.971Z,42.83
2022-10-14T15:10:24.599Z,43.20
2022-10-14T15:12:55.248Z,43.08
2022-10-14T15:15:40.200Z,42.69
2022-10-14T15:18:24.492Z,42.86
2022-10-14T15:21:20.739Z,42.97
2022-10-14T15:23:54.066Z,42.24
2022-10-14T15:26:30.377Z,42.33
2022-10-14T15:29:18.947Z,42.44
2022-10-14T15:32:06.745Z,42.00
2022-10-14T15:34:40.842Z,41.20
2022-10-14T15:37:16.566Z,41.43
2022-10-14T15:40:05.548Z,42.07
2022-10-14T15:42:37.437Z,41.77
2022-10-14T15:45:14.596Z,42.55
2022-10-14T15:50:28.947Z,42.75
2022-10-14T15:52:59.540Z,42.56
2022-10-14T15:55:36.046Z,42.98
2022-10-14T15:58:10.164Z,43.11
2022-10-14T16:00:39.462Z,42.95
2022-10-14T16:03:11.310Z,43.51
2022-10-14T16:05:43.285Z,43.13
2022-10-14T16:08:19.342Z,43.09
2022-10-14T16:10:48.594Z,43.63
2022-10-14T16:13:16.586Z,43.61
2022-10-14T16:16:11.780Z,43.44
2022-10-14T16:18:48.353Z,43.47
2022-10-14T16:21:17.334Z,43.39
2022-10-14T16:24:01.639Z,43.65
2022-10-14T16:26:38.529Z,44.01
2022-10-14T16:29:18.199Z,43.73
2022-10-14T16:31:52.661Z,43.78
2022-10-14T16:34:27.628Z,44.21
2022-10-14T16:37:07.333Z,44.00
2022-10-14T16:39:39.098Z,43.72
2022-10-14T16:42:08.291Z,43.77
2022-10-14T16:44:45.760Z,43.60
2022-10-14T16:47:17.225Z,43.71
2022-10-14T16:49:51.559Z,43.36
2022-10-14T16:52:29.185Z,43.65
2022-10-14T16:55:01.550Z,43.60
2022-10-14T16:57:35.798Z,43.87
2022-10-14T17:00:09.835Z,43.56
2022-10-14T17:02:40.358Z,43.86
2022-10-14T17:05:14.154Z,43.87
2022-10-14T17:07:46.801Z,43.62
2022-10-14T17:10:22.550Z,43.90
2022-10-14T17:12:50.008Z,43.46
2022-10-14T17:15:17.602Z,43.62
2022-10-14T17:17:53.674Z,43.55
2022-10-14T17:20:27.412Z,43.15
2022-10-14T17:23:09.503Z,43.58
2022-10-14T17:25:40.928Z,43.33
2022-10-14T17:28:13.197Z,43.79
2022-10-14T17:30:44.132Z,43.70
2022-10-14T17:33:12.237Z,43.36
2022-10-14T17:35:48.206Z,43.42
2022-10-14T17:38:18.297Z,43.62
2022-10-14T17:40:51.142Z,43.82
2022-10-14T17:43:20.485Z,43.65
2022-10-14T17:45:52.962Z,43.63
2022-10-14T17:48:21.432Z,43.41
2022-10-14T17:50:51.820Z,43.72
2022-10-14T17:53:28.180Z,43.58
2022-10-14T17:56:07.405Z,43.62
2022-10-14T17:58:40.963Z,43.37
2022-10-14T18:01:14.250Z,43.71
2022-10-14T18:03:47.935Z,43.73
2022-10-14T18:06:22.647Z,43.58
2022-10-14T18:08:55.507Z,44.07
2022-10-14T18:11:24.705Z,43.91
2022-10-14T18:13:58.051Z,44.04
2022-10-14T18:16:35.837Z,44.06
2022-10-14T18:19:16.900Z,43.93
2022-10-14T18:21:48.215Z,44.07
2022-10-14T18:24:18.485Z,43.96
2022-10-14T18:26:51.976Z,44.05
2022-10-14T18:29:23.501Z,44.07
2022-10-14T18:31:56.989Z,44.12
2022-10-14T18:34:27.812Z,44.14
2022-10-14T18:37:02.890Z,44.17
2022-10-14T18:39:33.390Z,44.21
2022-10-14T18:42:06.481Z,44.38
2022-10-14T18:44:34.463Z,44.34
2022-10-14T18:47:09.890Z,44.19
2022-10-14T18:49:43.121Z,44.49
2022-10-14T18:52:18.927Z,44.66
2022-10-14T18:54:50.826Z,44.51
2022-10-14T18:57:24.770Z,44.48
2022-10-14T18:59:52.450Z,44.38
2022-10-14T19:02:24.477Z,44.36
2022-10-14T19:04:53.552Z,44.86
2022-10-14T19:07:26.991Z,44.80
2022-10-14T19:09:57.959Z,44.91
2022-10-14T19:12:43.737Z,44.89
2022-10-14T19:15:14.431Z,44.90
2022-10-14T19:17:52.245Z,44.79
2022-10-14T19:20:25.515Z,44.95
2022-10-14T19:22:56.787Z,44.62
2022-10-14T19:25:25.537Z,44.62
2022-10-14T19:27:54.101Z,44.95
2022-10-14T19:30:25.473Z,44.74
2022-10-14T19:32:58.686Z,44.79
2022-10-14T19:35:31.935Z,44.79
2022-10-14T19:37:59.788Z,44.96
2022-10-14T19:40:29.633Z,44.98
2022-10-14T19:42:59.938Z,44.61
2022-10-14T19:45:30.554Z,45.01
2022-10-14T19:48:00.897Z,44.64
2022-10-14T19:50:32.353Z,44.79
2022-10-14T19:53:00.021Z,44.84
2022-10-14T19:55:28.687Z,44.69
2022-10-14T19:58:01.397Z,44.62
2022-10-14T20:00:31.873Z,44.92
2022-10-14T20:03:02.241Z,44.96
2022-10-14T20:05:32.220Z,44.85
2022-10-14T20:08:02.717Z,44.87
2022-10-14T20:10:30.234Z,45.25
2022-10-14T20:13:02.618Z,44.92
2022-10-14T20:15:32.779Z,45.09
2022-10-14T20:18:06.297Z,45.31
2022-10-14T20:20:33.970Z,45.26
2022-10-14T20:23:05.820Z,45.06
2022-10-14T20:25:41.849Z,44.92
2022-10-14T20:28:24.343Z,45.12
2022-10-14T20:30:57.849Z,45.29
2022-10-14T20:33:25.598Z,44.79
2022-10-14T20:36:03.518Z,45.07
2022-10-14T20:38:33.647Z,45.08
2022-10-14T20:41:21.274Z,44.85
2022-10-14T20:43:56.463Z,44.70
2022-10-14T20:46:28.501Z,45.09
2022-10-14T20:48:59.103Z,44.71
2022-10-14T20:51:27.154Z,44.91
2022-10-14T20:54:03.082Z,44.48
2022-10-14T20:56:35.697Z,44.79
2022-10-14T20:59:12.279Z,44.66
2022-10-14T21:01:40.217Z,44.43
2022-10-14T21:04:11.088Z,44.66
2022-10-14T21:06:42.543Z,44.61
2022-10-14T21:09:13.095Z,44.74
2022-10-14T21:11:41.677Z,44.69
2022-10-14T21:14:12.239Z,44.78
2022-10-14T21:16:42.315Z,44.66
2022-10-14T21:19:10.995Z,44.70
2022-10-14T21:21:43.052Z,44.76
2022-10-14T21:24:18.742Z,44.59
2022-10-14T21:26:50.654Z,44.37
2022-10-14T21:29:23.080Z,44.55
2022-10-14T21:31:52.960Z,44.60
2022-10-14T21:34:24.910Z,44.93
2022-10-14T21:37:00.616Z,44.62
2022-10-14T21:39:28.533Z,44.96
2022-10-14T21:42:04.282Z,44.81
2022-10-14T21:44:34.577Z,44.88
2022-10-14T21:47:04.765Z,44.74
2022-10-14T21:49:35.196Z,44.63
2022-10-14T21:52:04.051Z,44.34
2022-10-14T21:54:37.144Z,44.38
2022-10-14T21:57:07.515Z,44.75
2022-10-14T21:59:40.069Z,44.66
2022-10-14T22:02:12.956Z,44.41
2022-10-14T22:04:46.466Z,44.67
2022-10-14T22:07:18.081Z,44.74
2022-10-14T22:09:48.411Z,44.42
2022-10-14T22:12:21.195Z,44.29
2022-10-14T22:14:49.949Z,44.38
2022-10-14T22:17:28.866Z,44.57
2022-10-14T22:20:01.168Z,44.98
2022-10-14T22:22:28.869Z,44.63
2022-10-14T22:24:58.751Z,44.36
2022-10-14T22:27:31.870Z,44.39
2022-10-14T22:30:04.908Z,44.36
2022-10-14T22:32:39.255Z,44.77
2022-10-14T22:35:13.502Z,44.28
2022-10-14T22:37:46.675Z,44.78
2022-10-14T22:40:18.053Z,44.25
2022-10-14T22:42:51.357Z,44.28
2022-10-14T22:45:22.046Z,44.33
2022-10-14T22:47:54.313Z,44.38
2022-10-14T22:50:22.114Z,44.53
2022-10-14T22:52:53.722Z,44.16
2022-10-14T22:55:27.114Z,44.28
2022-10-14T22:57:54.986Z,44.73
2022-10-14T23:00:22.715Z,44.37
2022-10-14T23:02:53.661Z,44.40
2022-10-14T23:05:21.317Z,44.41
2022-10-14T23:07:54.758Z,44.54
2022-10-14T23:10:26.703Z,44.44
2022-10-14T23:12:56.477Z,44.55
2022-10-14T23:15:24.753Z,44.54
2022-10-14T23:17:56.981Z,44.44
2022-10-14T23:20:30.102Z,44.28
2022-10-14T23:23:00.436Z,44.54
2022-10-14T23:25:28.687Z,44.13
2022-10-14T23:27:59.073Z,43.97
2022-10-14T23:30:26.981Z,44.44
2022-10-14T23:32:54.669Z,44.51
2022-10-14T23:35:25.385Z,44.27
2022-10-14T23:37:59.165Z,44.32
2022-10-14T23:40:32.370Z,43.96
2022-10-14T23:43:01.768Z,43.91
2022-10-14T23:45:34.425Z,43.83
2022-10-14T23:48:08.137Z,43.89
2022-10-14T23:50:44.533Z,44.03
2022-10-14T23:53:15.530Z,44.10
2022-10-14T23:55:45.832Z,44.21
2022-10-14T23:58:17.840Z,43.77
